sensor_id;sensor_type;location;lat;lon;timestamp;P1;durP1;ratioP1;P2;durP2;ratioP2
70592;SDS011;58294;42.988;20.338;2022-09-01T00:02:19;9.07;;;7.53;;
70592;SDS011;58294;42.988;20.338;2022-09-01T00:04:45;7.03;;;6.28;;
70592;SDS011;58294;42.988;20.338;2022-09-01T00:07:12;11.15;;;7.47;;
70592;SDS011;58294;42.988;20.338;2022-09-01T00:09:38;9.38;;;8.40;;
70592;SDS011;58294;42.988;20.338;2022-09-01T00:12:05;11.13;;;9.10;;
70592;SDS011;58294;42.988;20.338;2022-09-01T00:14:35;11.38;;;8.45;;
70592;SDS011;58294;42.988;20.338;2022-09-01T00:17:05;10.00;;;7.90;;
70592;SDS011;58294;42.988;20.338;2022-09-01T00:19:32;13.30;;;8.48;;
70592;SDS011;58294;42.988;20.338;2022-09-01T00:22:00;9.82;;;8.82;;
70592;SDS011;58294;42.988;20.338;2022-09-01T00:24:27;10.10;;;8.27;;
70592;SDS011;58294;42.988;20.338;2022-09-01T00:26:53;10.45;;;8.38;;
70592;SDS011;58294;42.988;20.338;2022-09-01T00:29:20;10.00;;;8.55;;
70592;SDS011;58294;42.988;20.338;2022-09-01T00:31:47;10.80;;;9.15;;
70592;SDS011;58294;42.988;20.338;2022-09-01T00:34:13;14.15;;;8.63;;
70592;SDS011;58294;42.988;20.338;2022-09-01T00:36:40;8.90;;;7.93;;
70592;SDS011;58294;42.988;20.338;2022-09-01T00:39:06;12.77;;;8.20;;
70592;SDS011;58294;42.988;20.338;2022-09-01T00:41:34;9.85;;;8.23;;
70592;SDS011;58294;42.988;20.338;2022-09-01T00:44:06;8.57;;;7.07;;
70592;SDS011;58294;42.988;20.338;2022-09-01T00:46:40;15.30;;;8.43;;
70592;SDS011;58294;42.988;20.338;2022-09-01T00:49:15;9.98;;;8.93;;
70592;SDS011;58294;42.988;20.338;2022-09-01T00:54:34;10.95;;;8.07;;
70592;SDS011;58294;42.988;20.338;2022-09-01T00:57:04;9.00;;;7.57;;
70592;SDS011;58294;42.988;20.338;2022-09-01T00:59:32;11.32;;;8.77;;
70592;SDS011;58294;42.988;20.338;2022-09-01T01:02:02;9.27;;;7.85;;
70592;SDS011;58294;42.988;20.338;2022-09-01T01:04:28;12.77;;;8.30;;
70592;SDS011;58294;42.988;20.338;2022-09-01T01:06:56;11.60;;;8.23;;
70592;SDS011;58294;42.988;20.338;2022-09-01T01:09:27;9.80;;;7.90;;
70592;SDS011;58294;42.988;20.338;2022-09-01T01:11:58;9.50;;;8.50;;
70592;SDS011;58294;42.988;20.338;2022-09-01T01:14:26;10.32;;;8.85;;
70592;SDS011;58294;42.988;20.338;2022-09-01T01:16:56;11.85;;;8.82;;
70592;SDS011;58294;42.988;20.338;2022-09-01T01:22:21;11.88;;;8.30;;
70592;SDS011;58294;42.988;20.338;2022-09-01T01:25:10;9.43;;;8.52;;
70592;SDS011;58294;42.988;20.338;2022-09-01T01:27:37;11.02;;;8.32;;
70592;SDS011;58294;42.988;20.338;2022-09-01T01:30:07;11.23;;;8.98;;
70592;SDS011;58294;42.988;20.338;2022-09-01T01:32:35;10.30;;;8.43;;
70592;SDS011;58294;42.988;20.338;2022-09-01T01:35:07;10.43;;;8.27;;
70592;SDS011;58294;42.988;20.338;2022-09-01T01:37:39;8.73;;;7.82;;
70592;SDS011;58294;42.988;20.338;2022-09-01T01:40:08;11.23;;;8.98;;
70592;SDS011;58294;42.988;20.338;2022-09-01T01:42:41;17.30;;;9.15;;
70592;SDS011;58294;42.988;20.338;2022-09-01T01:45:10;9.90;;;8.90;;
70592;SDS011;58294;42.988;20.338;2022-09-01T01:47:40;14.60;;;9.00;;
70592;SDS011;58294;42.988;20.338;2022-09-01T01:50:06;10.98;;;9.18;;
70592;SDS011;58294;42.988;20.338;2022-09-01T01:52:33;12.82;;;8.77;;
70592;SDS011;58294;42.988;20.338;2022-09-01T01:55:00;13.13;;;8.95;;
70592;SDS011;58294;42.988;20.338;2022-09-01T01:57:26;11.52;;;9.05;;
70592;SDS011;58294;42.988;20.338;2022-09-01T01:59:56;10.10;;;8.45;;
70592;SDS011;58294;42.988;20.338;2022-09-01T02:02:22;9.75;;;8.63;;
70592;SDS011;58294;42.988;20.338;2022-09-01T02:04:48;15.68;;;9.95;;
70592;SDS011;58294;42.988;20.338;2022-09-01T02:07:14;12.25;;;8.77;;
70592;SDS011;58294;42.988;20.338;2022-09-01T02:09:40;10.80;;;9.23;;
70592;SDS011;58294;42.988;20.338;2022-09-01T02:12:10;10.38;;;8.80;;
70592;SDS011;58294;42.988;20.338;2022-09-01T02:14:36;12.20;;;8.18;;
70592;SDS011;58294;42.988;20.338;2022-09-01T02:17:02;9.07;;;8.15;;
70592;SDS011;58294;42.988;20.338;2022-09-01T02:19:30;10.77;;;8.50;;
70592;SDS011;58294;42.988;20.338;2022-09-01T02:21:56;9.88;;;8.55;;
70592;SDS011;58294;42.988;20.338;2022-09-01T02:24:24;10.90;;;8.82;;
70592;SDS011;58294;42.988;20.338;2022-09-01T02:26:50;10.07;;;8.20;;
70592;SDS011;58294;42.988;20.338;2022-09-01T02:29:17;9.73;;;7.43;;
70592;SDS011;58294;42.988;20.338;2022-09-01T02:31:49;10.40;;;7.93;;
70592;SDS011;58294;42.988;20.338;2022-09-01T02:34:17;10.27;;;8.18;;
70592;SDS011;58294;42.988;20.338;2022-09-01T02:36:48;8.95;;;7.70;;
70592;SDS011;58294;42.988;20.338;2022-09-01T02:39:17;9.55;;;8.57;;
70592;SDS011;58294;42.988;20.338;2022-09-01T02:41:44;10.02;;;8.43;;
70592;SDS011;58294;42.988;20.338;2022-09-01T02:44:10;11.00;;;9.82;;
70592;SDS011;58294;42.988;20.338;2022-09-01T02:46:41;15.95;;;9.93;;
70592;SDS011;58294;42.988;20.338;2022-09-01T02:49:12;11.63;;;9.00;;
70592;SDS011;58294;42.988;20.338;2022-09-01T02:51:46;9.52;;;8.27;;
70592;SDS011;58294;42.988;20.338;2022-09-01T02:54:13;13.68;;;8.40;;
70592;SDS011;58294;42.988;20.338;2022-09-01T02:56:41;18.55;;;10.38;;
70592;SDS011;58294;42.988;20.338;2022-09-01T02:59:17;17.40;;;11.75;;
70592;SDS011;58294;42.988;20.338;2022-09-01T03:01:46;16.52;;;10.60;;
70592;SDS011;58294;42.988;20.338;2022-09-01T03:04:16;13.30;;;11.13;;
70592;SDS011;58294;42.988;20.338;2022-09-01T03:06:42;11.43;;;10.07;;
70592;SDS011;58294;42.988;20.338;2022-09-01T03:09:10;14.52;;;9.77;;
70592;SDS011;58294;42.988;20.338;2022-09-01T03:11:39;14.48;;;9.80;;
70592;SDS011;58294;42.988;20.338;2022-09-01T03:14:07;10.98;;;9.13;;
70592;SDS011;58294;42.988;20.338;2022-09-01T03:16:33;12.20;;;8.57;;
70592;SDS011;58294;42.988;20.338;2022-09-01T03:19:00;9.55;;;8.02;;
70592;SDS011;58294;42.988;20.338;2022-09-01T03:21:27;11.23;;;8.68;;
70592;SDS011;58294;42.988;20.338;2022-09-01T03:23:53;9.98;;;8.15;;
70592;SDS011;58294;42.988;20.338;2022-09-01T03:26:22;9.52;;;8.02;;
70592;SDS011;58294;42.988;20.338;2022-09-01T03:28:49;9.30;;;8.10;;
70592;SDS011;58294;42.988;20.338;2022-09-01T03:31:16;11.55;;;7.75;;
70592;SDS011;58294;42.988;20.338;2022-09-01T03:33:44;9.77;;;7.80;;
70592;SDS011;58294;42.988;20.338;2022-09-01T03:36:10;11.15;;;7.78;;
70592;SDS011;58294;42.988;20.338;2022-09-01T03:38:44;8.90;;;7.13;;
70592;SDS011;58294;42.988;20.338;2022-09-01T03:41:13;10.25;;;6.88;;
70592;SDS011;58294;42.988;20.338;2022-09-01T03:43:42;9.77;;;8.02;;
70592;SDS011;58294;42.988;20.338;2022-09-01T03:46:09;8.80;;;7.90;;
70592;SDS011;58294;42.988;20.338;2022-09-01T03:48:35;10.10;;;8.23;;
70592;SDS011;58294;42.988;20.338;2022-09-01T03:51:01;9.60;;;7.38;;
70592;SDS011;58294;42.988;20.338;2022-09-01T03:53:28;9.05;;;7.13;;
70592;SDS011;58294;42.988;20.338;2022-09-01T03:55:55;11.50;;;8.73;;
70592;SDS011;58294;42.988;20.338;2022-09-01T03:58:24;8.85;;;7.78;;
70592;SDS011;58294;42.988;20.338;2022-09-01T04:00:50;12.38;;;7.28;;
70592;SDS011;58294;42.988;20.338;2022-09-01T04:03:22;8.57;;;7.50;;
70592;SDS011;58294;42.988;20.338;2022-09-01T04:05:50;9.45;;;7.25;;
70592;SDS011;58294;42.988;20.338;2022-09-01T04:08:18;8.43;;;7.40;;
70592;SDS011;58294;42.988;20.338;2022-09-01T04:10:49;10.30;;;8.07;;
70592;SDS011;58294;42.988;20.338;2022-09-01T04:13:18;7.68;;;6.50;;
70592;SDS011;58294;42.988;20.338;2022-09-01T04:15:47;12.77;;;8.98;;
70592;SDS011;58294;42.988;20.338;2022-09-01T04:18:14;10.85;;;8.38;;
70592;SDS011;58294;42.988;20.338;2022-09-01T04:20:57;8.05;;;7.20;;
70592;SDS011;58294;42.988;20.338;2022-09-01T04:23:30;9.43;;;8.50;;
70592;SDS011;58294;42.988;20.338;2022-09-01T04:31:09;21.38;;;9.35;;
70592;SDS011;58294;42.988;20.338;2022-09-01T04:33:43;12.75;;;9.20;;
70592;SDS011;58294;42.988;20.338;2022-09-01T04:36:19;13.55;;;8.95;;
70592;SDS011;58294;42.988;20.338;2022-09-01T04:38:48;13.27;;;9.90;;
70592;SDS011;58294;42.988;20.338;2022-09-01T04:41:24;12.27;;;9.13;;
70592;SDS011;58294;42.988;20.338;2022-09-01T04:43:56;12.05;;;9.07;;
70592;SDS011;58294;42.988;20.338;2022-09-01T04:46:24;13.13;;;8.45;;
70592;SDS011;58294;42.988;20.338;2022-09-01T04:48:52;12.82;;;8.95;;
70592;SDS011;58294;42.988;20.338;2022-09-01T04:51:20;9.55;;;8.27;;
70592;SDS011;58294;42.988;20.338;2022-09-01T04:53:47;11.18;;;9.20;;
70592;SDS011;58294;42.988;20.338;2022-09-01T04:56:15;9.63;;;8.65;;
70592;SDS011;58294;42.988;20.338;2022-09-01T04:58:43;11.05;;;9.32;;
70592;SDS011;58294;42.988;20.338;2022-09-01T05:01:14;14.77;;;9.23;;
70592;SDS011;58294;42.988;20.338;2022-09-01T05:03:42;10.90;;;8.05;;
70592;SDS011;58294;42.988;20.338;2022-09-01T05:06:17;12.82;;;8.55;;
70592;SDS011;58294;42.988;20.338;2022-09-01T05:08:44;13.30;;;8.30;;
70592;SDS011;58294;42.988;20.338;2022-09-01T05:11:11;9.80;;;7.90;;
70592;SDS011;58294;42.988;20.338;2022-09-01T05:13:41;9.88;;;7.57;;
70592;SDS011;58294;42.988;20.338;2022-09-01T05:16:10;11.35;;;7.65;;
70592;SDS011;58294;42.988;20.338;2022-09-01T05:18:39;10.07;;;8.07;;
70592;SDS011;58294;42.988;20.338;2022-09-01T05:21:10;11.60;;;8.68;;
70592;SDS011;58294;42.988;20.338;2022-09-01T05:23:39;10.30;;;8.00;;
70592;SDS011;58294;42.988;20.338;2022-09-01T05:26:10;9.95;;;8.02;;
70592;SDS011;58294;42.988;20.338;2022-09-01T05:28:48;16.02;;;9.68;;
70592;SDS011;58294;42.988;20.338;2022-09-01T05:31:20;15.18;;;8.18;;
70592;SDS011;58294;42.988;20.338;2022-09-01T05:33:47;11.68;;;7.75;;
70592;SDS011;58294;42.988;20.338;2022-09-01T05:36:18;10.13;;;8.15;;
70592;SDS011;58294;42.988;20.338;2022-09-01T05:38:46;11.20;;;7.85;;
70592;SDS011;58294;42.988;20.338;2022-09-01T05:41:13;11.52;;;8.73;;
70592;SDS011;58294;42.988;20.338;2022-09-01T05:43:40;9.45;;;7.93;;
70592;SDS011;58294;42.988;20.338;2022-09-01T05:46:13;13.48;;;8.75;;
70592;SDS011;58294;42.988;20.338;2022-09-01T05:48:44;11.32;;;8.68;;
70592;SDS011;58294;42.988;20.338;2022-09-01T05:51:14;10.23;;;7.88;;
70592;SDS011;58294;42.988;20.338;2022-09-01T05:53:44;9.02;;;7.70;;
70592;SDS011;58294;42.988;20.338;2022-09-01T05:56:11;10.25;;;7.68;;
70592;SDS011;58294;42.988;20.338;2022-09-01T05:58:39;9.30;;;7.00;;
70592;SDS011;58294;42.988;20.338;2022-09-01T06:01:09;12.60;;;8.15;;
70592;SDS011;58294;42.988;20.338;2022-09-01T06:03:51;8.77;;;6.88;;
70592;SDS011;58294;42.988;20.338;2022-09-01T06:06:22;7.88;;;7.07;;
70592;SDS011;58294;42.988;20.338;2022-09-01T06:08:53;15.05;;;10.05;;
70592;SDS011;58294;42.988;20.338;2022-09-01T06:11:23;11.43;;;7.78;;
70592;SDS011;58294;42.988;20.338;2022-09-01T06:13:51;8.60;;;7.60;;
70592;SDS011;58294;42.988;20.338;2022-09-01T06:16:21;9.32;;;7.57;;
70592;SDS011;58294;42.988;20.338;2022-09-01T06:18:48;9.20;;;7.07;;
70592;SDS011;58294;42.988;20.338;2022-09-01T06:21:17;7.53;;;6.75;;
70592;SDS011;58294;42.988;20.338;2022-09-01T06:23:46;8.30;;;6.47;;
70592;SDS011;58294;42.988;20.338;2022-09-01T06:26:34;9.60;;;6.80;;
70592;SDS011;58294;42.988;20.338;2022-09-01T06:29:04;8.32;;;6.80;;
70592;SDS011;58294;42.988;20.338;2022-09-01T06:31:34;11.63;;;7.70;;
70592;SDS011;58294;42.988;20.338;2022-09-01T06:34:03;9.23;;;6.88;;
70592;SDS011;58294;42.988;20.338;2022-09-01T06:36:34;8.45;;;6.85;;
70592;SDS011;58294;42.988;20.338;2022-09-01T06:39:01;10.02;;;7.05;;
70592;SDS011;58294;42.988;20.338;2022-09-01T06:41:28;8.13;;;7.07;;
70592;SDS011;58294;42.988;20.338;2022-09-01T06:43:55;11.73;;;8.25;;
70592;SDS011;58294;42.988;20.338;2022-09-01T06:46:22;8.63;;;6.90;;
70592;SDS011;58294;42.988;20.338;2022-09-01T06:48:52;9.63;;;7.50;;
70592;SDS011;58294;42.988;20.338;2022-09-01T06:51:19;9.50;;;7.35;;
70592;SDS011;58294;42.988;20.338;2022-09-01T06:53:47;8.38;;;6.88;;
70592;SDS011;58294;42.988;20.338;2022-09-01T06:56:21;10.20;;;7.95;;
70592;SDS011;58294;42.988;20.338;2022-09-01T06:58:52;9.13;;;8.20;;
70592;SDS011;58294;42.988;20.338;2022-09-01T07:01:19;11.38;;;8.60;;
70592;SDS011;58294;42.988;20.338;2022-09-01T07:03:48;11.57;;;9.43;;
70592;SDS011;58294;42.988;20.338;2022-09-01T07:06:16;13.80;;;9.98;;
70592;SDS011;58294;42.988;20.338;2022-09-01T07:08:43;10.93;;;9.77;;
70592;SDS011;58294;42.988;20.338;2022-09-01T07:11:24;15.48;;;10.90;;
70592;SDS011;58294;42.988;20.338;2022-09-01T07:13:57;13.02;;;9.75;;
70592;SDS011;58294;42.988;20.338;2022-09-01T07:16:26;9.00;;;8.20;;
70592;SDS011;58294;42.988;20.338;2022-09-01T07:18:55;14.60;;;8.75;;
70592;SDS011;58294;42.988;20.338;2022-09-01T07:21:24;10.25;;;9.15;;
70592;SDS011;58294;42.988;20.338;2022-09-01T07:23:51;12.98;;;9.48;;
70592;SDS011;58294;42.988;20.338;2022-09-01T07:26:17;9.68;;;7.93;;
70592;SDS011;58294;42.988;20.338;2022-09-01T07:28:46;8.85;;;7.90;;
70592;SDS011;58294;42.988;20.338;2022-09-01T07:31:29;9.50;;;8.48;;
70592;SDS011;58294;42.988;20.338;2022-09-01T07:34:01;14.30;;;9.85;;
70592;SDS011;58294;42.988;20.338;2022-09-01T07:36:30;11.85;;;8.32;;
70592;SDS011;58294;42.988;20.338;2022-09-01T07:38:57;10.00;;;8.80;;
70592;SDS011;58294;42.988;20.338;2022-09-01T07:41:25;11.88;;;8.85;;
70592;SDS011;58294;42.988;20.338;2022-09-01T07:43:52;12.80;;;8.75;;
70592;SDS011;58294;42.988;20.338;2022-09-01T07:46:21;14.90;;;8.77;;
70592;SDS011;58294;42.988;20.338;2022-09-01T07:48:48;10.90;;;8.05;;
70592;SDS011;58294;42.988;20.338;2022-09-01T07:51:16;13.90;;;9.15;;
70592;SDS011;58294;42.988;20.338;2022-09-01T07:53:44;9.90;;;8.05;;
70592;SDS011;58294;42.988;20.338;2022-09-01T07:56:13;12.25;;;8.85;;
70592;SDS011;58294;42.988;20.338;2022-09-01T07:58:41;9.68;;;7.45;;
70592;SDS011;58294;42.988;20.338;2022-09-01T08:01:07;14.98;;;9.50;;
70592;SDS011;58294;42.988;20.338;2022-09-01T08:03:34;12.00;;;8.48;;
70592;SDS011;58294;42.988;20.338;2022-09-01T08:06:04;9.77;;;8.77;;
70592;SDS011;58294;42.988;20.338;2022-09-01T08:08:32;9.70;;;8.10;;
70592;SDS011;58294;42.988;20.338;2022-09-01T08:10:59;12.77;;;8.27;;
70592;SDS011;58294;42.988;20.338;2022-09-01T08:13:25;9.52;;;8.45;;
70592;SDS011;58294;42.988;20.338;2022-09-01T08:15:50;9.40;;;7.97;;
70592;SDS011;58294;42.988;20.338;2022-09-01T08:18:16;11.40;;;8.20;;
70592;SDS011;58294;42.988;20.338;2022-09-01T08:20:42;10.75;;;8.38;;
70592;SDS011;58294;42.988;20.338;2022-09-01T08:23:13;12.80;;;8.18;;
70592;SDS011;58294;42.988;20.338;2022-09-01T08:25:42;9.48;;;7.80;;
70592;SDS011;58294;42.988;20.338;2022-09-01T08:28:09;10.00;;;8.13;;
70592;SDS011;58294;42.988;20.338;2022-09-01T08:30:37;10.48;;;8.27;;
70592;SDS011;58294;42.988;20.338;2022-09-01T08:33:04;13.32;;;8.43;;
70592;SDS011;58294;42.988;20.338;2022-09-01T08:35:30;11.93;;;8.38;;
70592;SDS011;58294;42.988;20.338;2022-09-01T08:37:56;10.98;;;7.85;;
70592;SDS011;58294;42.988;20.338;2022-09-01T08:40:23;10.30;;;8.10;;
70592;SDS011;58294;42.988;20.338;2022-09-01T08:42:59;11.52;;;7.40;;
70592;SDS011;58294;42.988;20.338;2022-09-01T08:45:49;11.55;;;7.75;;
70592;SDS011;58294;42.988;20.338;2022-09-01T08:48:21;8.17;;;7.10;;
70592;SDS011;58294;42.988;20.338;2022-09-01T08:51:40;10.60;;;8.60;;
70592;SDS011;58294;42.988;20.338;2022-09-01T08:54:00;8.63;;;7.72;;
70592;SDS011;58294;42.988;20.338;2022-09-01T08:56:27;14.50;;;7.93;;
70592;SDS011;58294;42.988;20.338;2022-09-01T08:58:53;11.60;;;8.27;;
70592;SDS011;58294;42.988;20.338;2022-09-01T09:04:43;8.20;;;7.40;;
70592;SDS011;58294;42.988;20.338;2022-09-01T09:10:05;8.27;;;7.55;;
70592;SDS011;58294;42.988;20.338;2022-09-01T09:15:25;9.40;;;8.48;;
70592;SDS011;58294;42.988;20.338;2022-09-01T09:18:19;10.65;;;9.45;;
70592;SDS011;58294;42.988;20.338;2022-09-01T09:21:21;12.57;;;9.48;;
70592;SDS011;58294;42.988;20.338;2022-09-01T09:23:58;9.70;;;8.70;;
70592;SDS011;58294;42.988;20.338;2022-09-01T09:26:29;10.70;;;8.43;;
70592;SDS011;58294;42.988;20.338;2022-09-01T09:28:55;9.95;;;9.05;;
70592;SDS011;58294;42.988;20.338;2022-09-01T09:33:50;10.35;;;9.32;;
70592;SDS011;58294;42.988;20.338;2022-09-01T09:36:18;10.90;;;8.32;;
70592;SDS011;58294;42.988;20.338;2022-09-01T09:38:45;11.07;;;9.30;;
70592;SDS011;58294;42.988;20.338;2022-09-01T09:43:48;9.23;;;8.32;;
70592;SDS011;58294;42.988;20.338;2022-09-01T09:51:44;10.63;;;9.52;;
70592;SDS011;58294;42.988;20.338;2022-09-01T09:54:26;10.15;;;9.15;;
70592;SDS011;58294;42.988;20.338;2022-09-01T10:04:46;8.48;;;7.65;;
70592;SDS011;58294;42.988;20.338;2022-09-01T10:07:32;11.75;;;8.85;;
70592;SDS011;58294;42.988;20.338;2022-09-01T10:10:06;9.18;;;8.35;;
70592;SDS011;58294;42.988;20.338;2022-09-01T10:12:52;9.65;;;8.30;;
70592;SDS011;58294;42.988;20.338;2022-09-01T10:15:21;9.43;;;8.45;;
70592;SDS011;58294;42.988;20.338;2022-09-01T10:17:50;11.63;;;9.00;;
70592;SDS011;58294;42.988;20.338;2022-09-01T10:20:20;12.77;;;8.70;;
70592;SDS011;58294;42.988;20.338;2022-09-01T10:22:49;9.45;;;8.57;;
70592;SDS011;58294;42.988;20.338;2022-09-01T10:25:20;9.52;;;7.82;;
70592;SDS011;58294;42.988;20.338;2022-09-01T10:27:54;11.00;;;9.90;;
70592;SDS011;58294;42.988;20.338;2022-09-01T10:30:23;10.60;;;8.30;;
70592;SDS011;58294;42.988;20.338;2022-09-01T10:32:53;9.82;;;8.60;;
70592;SDS011;58294;42.988;20.338;2022-09-01T10:35:29;9.98;;;8.00;;
70592;SDS011;58294;42.988;20.338;2022-09-01T10:37:58;8.15;;;7.40;;
70592;SDS011;58294;42.988;20.338;2022-09-01T10:42:56;8.52;;;7.72;;
70592;SDS011;58294;42.988;20.338;2022-09-01T10:45:43;8.07;;;7.28;;
70592;SDS011;58294;42.988;20.338;2022-09-01T10:48:21;9.00;;;7.70;;
70592;SDS011;58294;42.988;20.338;2022-09-01T10:51:33;9.20;;;7.80;;
70592;SDS011;58294;42.988;20.338;2022-09-01T10:53:40;11.05;;;8.27;;
70592;SDS011;58294;42.988;20.338;2022-09-01T11:04:19;9.15;;;7.88;;
70592;SDS011;58294;42.988;20.338;2022-09-01T11:06:53;15.90;;;9.27;;
70592;SDS011;58294;42.988;20.338;2022-09-01T11:09:36;8.57;;;7.78;;
70592;SDS011;58294;42.988;20.338;2022-09-01T11:20:26;10.05;;;9.05;;
70592;SDS011;58294;42.988;20.338;2022-09-01T11:23:09;11.53;;;10.33;;
70592;SDS011;58294;42.988;20.338;2022-09-01T11:36:13;11.38;;;8.80;;
70592;SDS011;58294;42.988;20.338;2022-09-01T11:38:49;9.98;;;9.02;;
70592;SDS011;58294;42.988;20.338;2022-09-01T11:41:21;13.30;;;10.25;;
70592;SDS011;58294;42.988;20.338;2022-09-01T11:43:48;14.65;;;9.68;;
70592;SDS011;58294;42.988;20.338;2022-09-01T11:46:30;9.90;;;8.90;;
70592;SDS011;58294;42.988;20.338;2022-09-01T11:49:00;10.27;;;8.88;;
70592;SDS011;58294;42.988;20.338;2022-09-01T11:51:42;12.00;;;10.02;;
70592;SDS011;58294;42.988;20.338;2022-09-01T11:54:10;13.55;;;8.70;;
70592;SDS011;58294;42.988;20.338;2022-09-01T11:56:37;13.30;;;9.40;;
70592;SDS011;58294;42.988;20.338;2022-09-01T11:59:03;10.77;;;9.68;;
70592;SDS011;58294;42.988;20.338;2022-09-01T12:03:56;9.70;;;8.80;;
70592;SDS011;58294;42.988;20.338;2022-09-01T12:06:26;11.40;;;10.30;;
70592;SDS011;58294;42.988;20.338;2022-09-01T12:08:57;10.33;;;9.27;;
70592;SDS011;58294;42.988;20.338;2022-09-01T12:11:35;11.32;;;10.13;;
70592;SDS011;58294;42.988;20.338;2022-09-01T12:14:05;11.30;;;10.05;;
70592;SDS011;58294;42.988;20.338;2022-09-01T12:16:34;11.07;;;10.07;;
70592;SDS011;58294;42.988;20.338;2022-09-01T12:19:02;10.20;;;9.32;;
70592;SDS011;58294;42.988;20.338;2022-09-01T12:21:30;11.27;;;10.00;;
70592;SDS011;58294;42.988;20.338;2022-09-01T12:24:15;12.27;;;10.88;;
70592;SDS011;58294;42.988;20.338;2022-09-01T12:26:43;11.13;;;10.02;;
70592;SDS011;58294;42.988;20.338;2022-09-01T12:29:11;12.93;;;10.27;;
70592;SDS011;58294;42.988;20.338;2022-09-01T12:31:42;13.85;;;9.15;;
70592;SDS011;58294;42.988;20.338;2022-09-01T12:34:35;10.90;;;7.55;;
70592;SDS011;58294;42.988;20.338;2022-09-01T12:37:36;6.88;;;6.07;;
70592;SDS011;58294;42.988;20.338;2022-09-01T12:39:56;6.25;;;5.63;;
70592;SDS011;58294;42.988;20.338;2022-09-01T12:44:50;8.32;;;7.53;;
70592;SDS011;58294;42.988;20.338;2022-09-01T12:50:03;10.45;;;8.70;;
70592;SDS011;58294;42.988;20.338;2022-09-01T12:52:57;10.20;;;8.75;;
70592;SDS011;58294;42.988;20.338;2022-09-01T12:55:30;10.50;;;9.45;;
70592;SDS011;58294;42.988;20.338;2022-09-01T12:58:04;12.13;;;9.60;;
70592;SDS011;58294;42.988;20.338;2022-09-01T13:05:36;11.23;;;8.93;;
70592;SDS011;58294;42.988;20.338;2022-09-01T13:08:06;11.68;;;10.07;;
70592;SDS011;58294;42.988;20.338;2022-09-01T13:10:34;9.95;;;8.95;;
70592;SDS011;58294;42.988;20.338;2022-09-01T13:13:02;9.93;;;8.93;;
70592;SDS011;58294;42.988;20.338;2022-09-01T13:15:29;10.18;;;9.10;;
70592;SDS011;58294;42.988;20.338;2022-09-01T13:17:55;10.73;;;9.63;;
70592;SDS011;58294;42.988;20.338;2022-09-01T13:20:21;10.45;;;9.35;;
70592;SDS011;58294;42.988;20.338;2022-09-01T13:22:47;9.77;;;8.73;;
70592;SDS011;58294;42.988;20.338;2022-09-01T13:25:15;8.77;;;8.00;;
70592;SDS011;58294;42.988;20.338;2022-09-01T13:27:42;9.80;;;8.60;;
70592;SDS011;58294;42.988;20.338;2022-09-01T13:30:12;9.75;;;8.75;;
70592;SDS011;58294;42.988;20.338;2022-09-01T13:32:39;9.50;;;8.60;;
70592;SDS011;58294;42.988;20.338;2022-09-01T13:35:05;10.23;;;8.77;;
70592;SDS011;58294;42.988;20.338;2022-09-01T13:37:32;8.10;;;7.30;;
70592;SDS011;58294;42.988;20.338;2022-09-01T13:39:57;8.70;;;7.90;;
70592;SDS011;58294;42.988;20.338;2022-09-01T13:42:23;9.73;;;8.77;;
70592;SDS011;58294;42.988;20.338;2022-09-01T13:44:49;9.88;;;8.90;;
70592;SDS011;58294;42.988;20.338;2022-09-01T13:47:15;12.18;;;9.73;;
70592;SDS011;58294;42.988;20.338;2022-09-01T13:49:40;10.80;;;9.60;;
70592;SDS011;58294;42.988;20.338;2022-09-01T13:52:06;11.70;;;9.93;;
70592;SDS011;58294;42.988;20.338;2022-09-01T13:54:32;10.93;;;9.07;;
70592;SDS011;58294;42.988;20.338;2022-09-01T13:56:58;12.38;;;9.68;;
70592;SDS011;58294;42.988;20.338;2022-09-01T13:59:25;12.15;;;9.98;;
70592;SDS011;58294;42.988;20.338;2022-09-01T14:01:50;11.55;;;9.45;;
70592;SDS011;58294;42.988;20.338;2022-09-01T14:04:16;12.25;;;8.90;;
70592;SDS011;58294;42.988;20.338;2022-09-01T14:06:44;23.27;;;11.55;;
70592;SDS011;58294;42.988;20.338;2022-09-01T14:09:10;18.48;;;14.85;;
70592;SDS011;58294;42.988;20.338;2022-09-01T14:11:37;14.48;;;12.90;;
70592;SDS011;58294;42.988;20.338;2022-09-01T14:14:03;12.90;;;11.38;;
70592;SDS011;58294;42.988;20.338;2022-09-01T14:16:30;10.25;;;9.25;;
70592;SDS011;58294;42.988;20.338;2022-09-01T14:18:56;11.75;;;9.43;;
70592;SDS011;58294;42.988;20.338;2022-09-01T14:21:24;10.52;;;9.43;;
70592;SDS011;58294;42.988;20.338;2022-09-01T14:23:50;11.45;;;9.27;;
70592;SDS011;58294;42.988;20.338;2022-09-01T14:26:17;18.58;;;13.18;;
70592;SDS011;58294;42.988;20.338;2022-09-01T14:28:43;16.92;;;15.18;;
70592;SDS011;58294;42.988;20.338;2022-09-01T14:31:12;18.05;;;16.25;;
70592;SDS011;58294;42.988;20.338;2022-09-01T14:33:40;20.27;;;18.25;;
70592;SDS011;58294;42.988;20.338;2022-09-01T14:36:06;21.42;;;19.23;;
70592;SDS011;58294;42.988;20.338;2022-09-01T14:38:39;22.20;;;20.13;;
70592;SDS011;58294;42.988;20.338;2022-09-01T14:41:05;22.15;;;19.95;;
70592;SDS011;58294;42.988;20.338;2022-09-01T14:43:32;21.63;;;19.58;;
70592;SDS011;58294;42.988;20.338;2022-09-01T14:46:04;23.15;;;19.27;;
70592;SDS011;58294;42.988;20.338;2022-09-01T14:48:34;23.77;;;21.38;;
70592;SDS011;58294;42.988;20.338;2022-09-01T14:51:02;21.25;;;19.08;;
70592;SDS011;58294;42.988;20.338;2022-09-01T14:53:28;22.83;;;20.48;;
70592;SDS011;58294;42.988;20.338;2022-09-01T14:55:55;22.95;;;20.48;;
70592;SDS011;58294;42.988;20.338;2022-09-01T14:58:22;22.33;;;19.58;;
70592;SDS011;58294;42.988;20.338;2022-09-01T15:00:50;22.95;;;20.45;;
70592;SDS011;58294;42.988;20.338;2022-09-01T15:03:19;24.45;;;21.50;;
70592;SDS011;58294;42.988;20.338;2022-09-01T15:05:47;22.90;;;20.58;;
70592;SDS011;58294;42.988;20.338;2022-09-01T15:08:14;22.42;;;19.25;;
70592;SDS011;58294;42.988;20.338;2022-09-01T15:10:40;22.35;;;20.25;;
70592;SDS011;58294;42.988;20.338;2022-09-01T15:13:06;22.92;;;20.48;;
70592;SDS011;58294;42.988;20.338;2022-09-01T15:15:33;21.95;;;19.58;;
70592;SDS011;58294;42.988;20.338;2022-09-01T15:17:59;22.25;;;20.02;;
70592;SDS011;58294;42.988;20.338;2022-09-01T15:20:26;23.75;;;20.52;;
70592;SDS011;58294;42.988;20.338;2022-09-01T15:23:14;21.52;;;19.25;;
70592;SDS011;58294;42.988;20.338;2022-09-01T15:25:42;21.55;;;19.25;;
70592;SDS011;58294;42.988;20.338;2022-09-01T15:28:08;22.45;;;20.13;;
70592;SDS011;58294;42.988;20.338;2022-09-01T15:30:35;24.30;;;20.17;;
70592;SDS011;58294;42.988;20.338;2022-09-01T15:33:01;24.10;;;21.73;;
70592;SDS011;58294;42.988;20.338;2022-09-01T15:35:28;23.23;;;20.40;;
70592;SDS011;58294;42.988;20.338;2022-09-01T15:37:55;22.60;;;19.77;;
70592;SDS011;58294;42.988;20.338;2022-09-01T15:40:22;22.35;;;20.08;;
70592;SDS011;58294;42.988;20.338;2022-09-01T15:42:49;22.42;;;20.15;;
70592;SDS011;58294;42.988;20.338;2022-09-01T15:45:17;23.52;;;21.20;;
70592;SDS011;58294;42.988;20.338;2022-09-01T15:47:45;23.80;;;21.40;;
70592;SDS011;58294;42.988;20.338;2022-09-01T15:50:15;15.75;;;10.00;;
70592;SDS011;58294;42.988;20.338;2022-09-01T15:52:54;10.30;;;7.55;;
70592;SDS011;58294;42.988;20.338;2022-09-01T15:55:30;8.10;;;6.95;;
70592;SDS011;58294;42.988;20.338;2022-09-01T15:58:07;25.20;;;8.25;;
70592;SDS011;58294;42.988;20.338;2022-09-01T16:00:35;24.15;;;6.15;;